sensor_id;sensor_type;location;lat;lon;timestamp;temperature;humidity
10873;DHT22;34586;53.616;10.032;2023-07-31T00:00:43;15.00;99.90
10873;DHT22;34586;53.616;10.032;2023-07-31T00:03:09;15.00;99.90
10873;DHT22;34586;53.616;10.032;2023-07-31T00:05:35;15.10;99.90
10873;DHT22;34586;53.616;10.032;2023-07-31T00:08:01;15.10;99.90
10873;DHT22;34586;53.616;10.032;2023-07-31T00:10:27;15.10;99.90
10873;DHT22;34586;53.616;10.032;2023-07-31T00:12:52;15.10;99.90
10873;DHT22;34586;53.616;10.032;2023-07-31T00:15:18;15.10;99.90
10873;DHT22;34586;53.616;10.032;2023-07-31T00:17:43;15.10;99.90
10873;DHT22;34586;53.616;10.032;2023-07-31T00:20:09;15.10;99.90
10873;DHT22;34586;53.616;10.032;2023-07-31T00:22:35;15.20;99.90
10873;DHT22;34586;53.616;10.032;2023-07-31T00:25:01;15.20;99.90
10873;DHT22;34586;53.616;10.032;2023-07-31T00:27:27;15.20;99.90
10873;DHT22;34586;53.616;10.032;2023-07-31T00:29:52;15.20;99.90
10873;DHT22;34586;53.616;10.032;2023-07-31T00:32:18;15.20;99.90
10873;DHT22;34586;53.616;10.032;2023-07-31T00:34:44;15.10;99.90
10873;DHT22;34586;53.616;10.032;2023-07-31T00:37:09;15.10;99.90
10873;DHT22;34586;53.616;10.032;2023-07-31T00:39:35;15.20;99.90
10873;DHT22;34586;53.616;10.032;2023-07-31T00:42:01;15.20;99.90
10873;DHT22;34586;53.616;10.032;2023-07-31T00:44:26;15.20;99.90
10873;DHT22;34586;53.616;10.032;2023-07-31T00:46:52;15.20;99.90
10873;DHT22;34586;53.616;10.032;2023-07-31T00:49:18;15.20;99.90
10873;DHT22;34586;53.616;10.032;2023-07-31T00:51:44;15.20;99.90
10873;DHT22;34586;53.616;10.032;2023-07-31T00:54:11;15.20;99.90
10873;DHT22;34586;53.616;10.032;2023-07-31T00:56:36;15.30;99.90
10873;DHT22;34586;53.616;10.032;2023-07-31T00:59:03;15.20;99.90
10873;DHT22;34586;53.616;10.032;2023-07-31T01:01:28;15.20;99.90
10873;DHT22;34586;53.616;10.032;2023-07-31T01:03:54;15.30;99.90
10873;DHT22;34586;53.616;10.032;2023-07-31T01:09:18;15.30;99.90
10873;DHT22;34586;53.616;10.032;2023-07-31T01:11:52;15.30;99.90
10873;DHT22;34586;53.616;10.032;2023-07-31T01:14:18;15.40;99.90
10873;DHT22;34586;53.616;10.032;2023-07-31T01:16:44;15.30;99.90
10873;DHT22;34586;53.616;10.032;2023-07-31T01:19:11;15.30;99.90
10873;DHT22;34586;53.616;10.032;2023-07-31T01:24:47;15.30;99.90
10873;DHT22;34586;53.616;10.032;2023-07-31T01:27:41;15.30;99.90
10873;DHT22;34586;53.616;10.032;2023-07-31T01:30:13;15.30;99.90
10873;DHT22;34586;53.616;10.032;2023-07-31T01:32:42;15.40;99.90
10873;DHT22;34586;53.616;10.032;2023-07-31T01:35:09;15.40;99.90
10873;DHT22;34586;53.616;10.032;2023-07-31T01:37:35;15.40;99.90
10873;DHT22;34586;53.616;10.032;2023-07-31T01:40:01;15.40;99.90
10873;DHT22;34586;53.616;10.032;2023-07-31T01:42:26;15.40;99.90
10873;DHT22;34586;53.616;10.032;2023-07-31T01:44:52;15.30;99.90
10873;DHT22;34586;53.616;10.032;2023-07-31T01:47:17;15.30;99.90
10873;DHT22;34586;53.616;10.032;2023-07-31T01:49:43;15.30;99.90
10873;DHT22;34586;53.616;10.032;2023-07-31T01:52:08;15.30;99.90
10873;DHT22;34586;53.616;10.032;2023-07-31T01:54:34;15.30;99.90
10873;DHT22;34586;53.616;10.032;2023-07-31T01:57:02;15.30;99.90
10873;DHT22;34586;53.616;10.032;2023-07-31T01:59:27;15.30;99.90
10873;DHT22;34586;53.616;10.032;2023-07-31T02:01:54;15.30;99.90
10873;DHT22;34586;53.616;10.032;2023-07-31T02:04:19;15.40;99.90
10873;DHT22;34586;53.616;10.032;2023-07-31T02:06:45;15.30;99.90
10873;DHT22;34586;53.616;10.032;2023-07-31T02:09:11;15.80;99.90
10873;DHT22;34586;53.616;10.032;2023-07-31T02:11:36;15.40;99.90
10873;DHT22;34586;53.616;10.032;2023-07-31T02:14:02;15.50;99.90
10873;DHT22;34586;53.616;10.032;2023-07-31T02:16:27;15.50;99.90
10873;DHT22;34586;53.616;10.032;2023-07-31T02:18:53;15.60;99.90
10873;DHT22;34586;53.616;10.032;2023-07-31T02:21:19;15.50;99.90
10873;DHT22;34586;53.616;10.032;2023-07-31T02:23:44;15.50;99.90
10873;DHT22;34586;53.616;10.032;2023-07-31T02:26:10;15.60;99.90
10873;DHT22;34586;53.616;10.032;2023-07-31T02:28:35;15.60;99.90
10873;DHT22;34586;53.616;10.032;2023-07-31T02:31:01;15.70;99.90
10873;DHT22;34586;53.616;10.032;2023-07-31T02:33:27;15.70;99.90
10873;DHT22;34586;53.616;10.032;2023-07-31T02:35:52;15.70;99.90
10873;DHT22;34586;53.616;10.032;2023-07-31T02:38:18;15.80;99.90
10873;DHT22;34586;53.616;10.032;2023-07-31T02:40:43;15.70;99.90
10873;DHT22;34586;53.616;10.032;2023-07-31T02:43:09;15.70;99.90
10873;DHT22;34586;53.616;10.032;2023-07-31T02:45:35;15.70;99.90
10873;DHT22;34586;53.616;10.032;2023-07-31T02:48:00;15.70;99.90
10873;DHT22;34586;53.616;10.032;2023-07-31T02:50:26;15.70;99.90
10873;DHT22;34586;53.616;10.032;2023-07-31T02:52:53;15.70;99.90
10873;DHT22;34586;53.616;10.032;2023-07-31T02:55:18;15.70;99.90
10873;DHT22;34586;53.616;10.032;2023-07-31T02:57:44;15.70;99.90
10873;DHT22;34586;53.616;10.032;2023-07-31T03:00:10;15.70;99.90
10873;DHT22;34586;53.616;10.032;2023-07-31T03:02:35;15.60;99.90
10873;DHT22;34586;53.616;10.032;2023-07-31T03:05:01;15.60;99.90
10873;DHT22;34586;53.616;10.032;2023-07-31T03:07:26;15.60;99.90
10873;DHT22;34586;53.616;10.032;2023-07-31T03:09:52;15.70;99.90
10873;DHT22;34586;53.616;10.032;2023-07-31T03:12:18;15.70;99.90
10873;DHT22;34586;53.616;10.032;2023-07-31T03:14:44;15.70;99.90
10873;DHT22;34586;53.616;10.032;2023-07-31T03:17:10;15.70;99.90
10873;DHT22;34586;53.616;10.032;2023-07-31T03:19:36;15.70;99.90
10873;DHT22;34586;53.616;10.032;2023-07-31T03:22:01;15.60;99.90
10873;DHT22;34586;53.616;10.032;2023-07-31T03:24:28;15.70;99.90
10873;DHT22;34586;53.616;10.032;2023-07-31T03:26:54;15.70;99.90
10873;DHT22;34586;53.616;10.032;2023-07-31T03:29:19;15.60;99.90
10873;DHT22;34586;53.616;10.032;2023-07-31T03:31:45;15.60;99.90
10873;DHT22;34586;53.616;10.032;2023-07-31T03:34:10;15.60;99.90
10873;DHT22;34586;53.616;10.032;2023-07-31T03:36:36;15.70;99.90
10873;DHT22;34586;53.616;10.032;2023-07-31T03:39:02;15.70;99.90
10873;DHT22;34586;53.616;10.032;2023-07-31T03:41:28;15.80;99.90
10873;DHT22;34586;53.616;10.032;2023-07-31T03:43:54;15.80;99.90
10873;DHT22;34586;53.616;10.032;2023-07-31T03:46:23;15.80;99.90
10873;DHT22;34586;53.616;10.032;2023-07-31T03:48:49;15.80;99.90
10873;DHT22;34586;53.616;10.032;2023-07-31T03:51:15;15.80;99.90
10873;DHT22;34586;53.616;10.032;2023-07-31T03:53:42;15.90;99.90
10873;DHT22;34586;53.616;10.032;2023-07-31T03:56:07;15.90;99.90
10873;DHT22;34586;53.616;10.032;2023-07-31T03:58:33;15.90;99.90
10873;DHT22;34586;53.616;10.032;2023-07-31T04:00:58;15.90;99.90
10873;DHT22;34586;53.616;10.032;2023-07-31T04:03:24;16.00;99.90
10873;DHT22;34586;53.616;10.032;2023-07-31T04:05:49;16.00;99.90
10873;DHT22;34586;53.616;10.032;2023-07-31T04:08:15;16.00;99.90
10873;DHT22;34586;53.616;10.032;2023-07-31T04:10:40;16.00;99.90
10873;DHT22;34586;53.616;10.032;2023-07-31T04:13:06;15.90;99.90
10873;DHT22;34586;53.616;10.032;2023-07-31T04:15:32;16.00;99.90
10873;DHT22;34586;53.616;10.032;2023-07-31T04:17:57;16.00;99.90
10873;DHT22;34586;53.616;10.032;2023-07-31T04:20:23;16.00;99.90
10873;DHT22;34586;53.616;10.032;2023-07-31T04:22:49;16.00;99.90
10873;DHT22;34586;53.616;10.032;2023-07-31T04:25:15;16.00;99.90
10873;DHT22;34586;53.616;10.032;2023-07-31T04:27:40;16.00;99.90
10873;DHT22;34586;53.616;10.032;2023-07-31T04:30:06;16.10;99.90
10873;DHT22;34586;53.616;10.032;2023-07-31T04:32:32;16.10;99.90
10873;DHT22;34586;53.616;10.032;2023-07-31T04:34:57;16.10;99.90
10873;DHT22;34586;53.616;10.032;2023-07-31T04:37:23;16.00;99.90
10873;DHT22;34586;53.616;10.032;2023-07-31T04:39:49;16.00;99.90
10873;DHT22;34586;53.616;10.032;2023-07-31T04:42:14;16.00;99.90
10873;DHT22;34586;53.616;10.032;2023-07-31T04:44:40;16.00;99.90
10873;DHT22;34586;53.616;10.032;2023-07-31T04:47:05;16.00;99.90
10873;DHT22;34586;53.616;10.032;2023-07-31T04:49:32;16.10;99.90
10873;DHT22;34586;53.616;10.032;2023-07-31T04:51:58;16.00;99.90
10873;DHT22;34586;53.616;10.032;2023-07-31T04:54:23;16.00;99.90
10873;DHT22;34586;53.616;10.032;2023-07-31T04:56:49;16.00;99.90
10873;DHT22;34586;53.616;10.032;2023-07-31T04:59:14;16.10;99.90
10873;DHT22;34586;53.616;10.032;2023-07-31T05:01:40;16.00;99.90
10873;DHT22;34586;53.616;10.032;2023-07-31T05:04:06;16.00;99.90
10873;DHT22;34586;53.616;10.032;2023-07-31T05:06:32;16.10;99.90
10873;DHT22;34586;53.616;10.032;2023-07-31T05:08:57;16.10;99.90
10873;DHT22;34586;53.616;10.032;2023-07-31T05:11:23;16.10;99.90
10873;DHT22;34586;53.616;10.032;2023-07-31T05:13:49;16.10;99.90
10873;DHT22;34586;53.616;10.032;2023-07-31T05:16:14;16.10;99.90
10873;DHT22;34586;53.616;10.032;2023-07-31T05:18:40;16.10;99.90
10873;DHT22;34586;53.616;10.032;2023-07-31T05:21:05;16.00;99.90
10873;DHT22;34586;53.616;10.032;2023-07-31T05:23:31;16.10;99.90
10873;DHT22;34586;53.616;10.032;2023-07-31T05:26:07;16.10;99.90
10873;DHT22;34586;53.616;10.032;2023-07-31T05:28:35;16.00;99.90
10873;DHT22;34586;53.616;10.032;2023-07-31T05:31:05;16.00;99.90
10873;DHT22;34586;53.616;10.032;2023-07-31T05:33:30;16.10;99.90
10873;DHT22;34586;53.616;10.032;2023-07-31T05:35:56;16.00;99.90
10873;DHT22;34586;53.616;10.032;2023-07-31T05:38:22;16.00;99.90
10873;DHT22;34586;53.616;10.032;2023-07-31T05:40:48;16.00;99.90
10873;DHT22;34586;53.616;10.032;2023-07-31T05:43:13;16.00;99.90
10873;DHT22;34586;53.616;10.032;2023-07-31T05:45:40;16.00;99.90
10873;DHT22;34586;53.616;10.032;2023-07-31T05:48:05;16.00;99.90
10873;DHT22;34586;53.616;10.032;2023-07-31T05:50:31;16.10;99.90
10873;DHT22;34586;53.616;10.032;2023-07-31T05:52:57;16.00;99.90
10873;DHT22;34586;53.616;10.032;2023-07-31T05:55:23;16.00;99.90
10873;DHT22;34586;53.616;10.032;2023-07-31T05:57:49;16.10;99.90
10873;DHT22;34586;53.616;10.032;2023-07-31T06:00:15;16.10;99.90
10873;DHT22;34586;53.616;10.032;2023-07-31T06:02:40;16.10;99.90
10873;DHT22;34586;53.616;10.032;2023-07-31T06:05:06;16.10;99.90
10873;DHT22;34586;53.616;10.032;2023-07-31T06:07:32;16.20;99.90
10873;DHT22;34586;53.616;10.032;2023-07-31T06:09:58;16.20;99.90
10873;DHT22;34586;53.616;10.032;2023-07-31T06:12:29;16.30;99.90
10873;DHT22;34586;53.616;10.032;2023-07-31T06:14:55;16.40;99.90
10873;DHT22;34586;53.616;10.032;2023-07-31T06:17:21;16.40;99.90
10873;DHT22;34586;53.616;10.032;2023-07-31T06:19:47;16.50;99.90
10873;DHT22;34586;53.616;10.032;2023-07-31T06:22:12;16.40;99.90
10873;DHT22;34586;53.616;10.032;2023-07-31T06:24:38;16.50;99.90
10873;DHT22;34586;53.616;10.032;2023-07-31T06:27:04;16.50;99.90
10873;DHT22;34586;53.616;10.032;2023-07-31T06:29:30;16.50;99.90
10873;DHT22;34586;53.616;10.032;2023-07-31T06:31:56;16.60;99.90
10873;DHT22;34586;53.616;10.032;2023-07-31T06:34:21;16.60;99.90
10873;DHT22;34586;53.616;10.032;2023-07-31T06:36:47;16.70;99.90
10873;DHT22;34586;53.616;10.032;2023-07-31T06:39:12;16.60;99.90
10873;DHT22;34586;53.616;10.032;2023-07-31T06:41:38;16.60;99.90
10873;DHT22;34586;53.616;10.032;2023-07-31T06:44:04;16.60;99.90
10873;DHT22;34586;53.616;10.032;2023-07-31T06:46:30;16.60;99.90
10873;DHT22;34586;53.616;10.032;2023-07-31T06:48:55;16.60;99.90
10873;DHT22;34586;53.616;10.032;2023-07-31T06:51:21;16.60;99.90
10873;DHT22;34586;53.616;10.032;2023-07-31T06:53:47;16.50;99.90
10873;DHT22;34586;53.616;10.032;2023-07-31T06:56:12;16.50;99.90
10873;DHT22;34586;53.616;10.032;2023-07-31T06:58:38;16.60;99.90
10873;DHT22;34586;53.616;10.032;2023-07-31T07:01:04;16.50;99.90
10873;DHT22;34586;53.616;10.032;2023-07-31T07:03:29;16.50;99.90
10873;DHT22;34586;53.616;10.032;2023-07-31T07:05:55;16.60;99.90
10873;DHT22;34586;53.616;10.032;2023-07-31T07:08:21;16.60;99.90
10873;DHT22;34586;53.616;10.032;2023-07-31T07:10:47;16.60;99.90
10873;DHT22;34586;53.616;10.032;2023-07-31T07:13:13;16.60;99.90
10873;DHT22;34586;53.616;10.032;2023-07-31T07:15:39;16.60;99.90
10873;DHT22;34586;53.616;10.032;2023-07-31T07:18:04;16.60;99.90
10873;DHT22;34586;53.616;10.032;2023-07-31T07:20:30;16.50;99.90
10873;DHT22;34586;53.616;10.032;2023-07-31T07:22:56;16.60;99.90
10873;DHT22;34586;53.616;10.032;2023-07-31T07:25:21;16.50;99.90
10873;DHT22;34586;53.616;10.032;2023-07-31T07:27:47;16.60;99.90
10873;DHT22;34586;53.616;10.032;2023-07-31T07:30:12;16.50;99.90
10873;DHT22;34586;53.616;10.032;2023-07-31T07:32:39;16.50;99.90
10873;DHT22;34586;53.616;10.032;2023-07-31T07:35:06;16.60;99.90
10873;DHT22;34586;53.616;10.032;2023-07-31T07:37:31;16.50;99.90
10873;DHT22;34586;53.616;10.032;2023-07-31T07:39:57;16.50;99.90
10873;DHT22;34586;53.616;10.032;2023-07-31T07:42:23;16.50;99.90
10873;DHT22;34586;53.616;10.032;2023-07-31T07:44:48;16.50;99.90
10873;DHT22;34586;53.616;10.032;2023-07-31T07:47:14;16.50;99.90
10873;DHT22;34586;53.616;10.032;2023-07-31T07:49:40;16.40;99.90
10873;DHT22;34586;53.616;10.032;2023-07-31T07:52:05;16.50;99.90
10873;DHT22;34586;53.616;10.032;2023-07-31T07:54:31;16.50;99.90
10873;DHT22;34586;53.616;10.032;2023-07-31T07:56:57;16.60;99.90
10873;DHT22;34586;53.616;10.032;2023-07-31T07:59:23;16.70;99.90
10873;DHT22;34586;53.616;10.032;2023-07-31T08:01:48;16.60;99.90
10873;DHT22;34586;53.616;10.032;2023-07-31T08:04:14;16.70;99.90
10873;DHT22;34586;53.616;10.032;2023-07-31T08:06:39;16.80;99.90
10873;DHT22;34586;53.616;10.032;2023-07-31T08:09:05;16.90;99.90
10873;DHT22;34586;53.616;10.032;2023-07-31T08:11:32;17.00;99.90
10873;DHT22;34586;53.616;10.032;2023-07-31T08:13:58;17.00;99.90
10873;DHT22;34586;53.616;10.032;2023-07-31T08:16:23;17.10;99.90
10873;DHT22;34586;53.616;10.032;2023-07-31T08:18:49;17.20;99.90
10873;DHT22;34586;53.616;10.032;2023-07-31T08:21:14;17.30;99.90
10873;DHT22;34586;53.616;10.032;2023-07-31T08:23:40;17.30;99.90
10873;DHT22;34586;53.616;10.032;2023-07-31T08:26:06;17.30;99.90
10873;DHT22;34586;53.616;10.032;2023-07-31T08:28:32;17.40;99.90
10873;DHT22;34586;53.616;10.032;2023-07-31T08:30:58;17.40;99.90
10873;DHT22;34586;53.616;10.032;2023-07-31T08:33:23;17.50;99.90
10873;DHT22;34586;53.616;10.032;2023-07-31T08:35:49;17.80;99.90
10873;DHT22;34586;53.616;10.032;2023-07-31T08:38:14;17.80;99.90
10873;DHT22;34586;53.616;10.032;2023-07-31T08:40:40;17.90;99.90
10873;DHT22;34586;53.616;10.032;2023-07-31T08:43:07;18.10;99.90
10873;DHT22;34586;53.616;10.032;2023-07-31T08:45:32;18.10;99.90
10873;DHT22;34586;53.616;10.032;2023-07-31T08:47:59;17.90;99.90
10873;DHT22;34586;53.616;10.032;2023-07-31T08:50:25;18.00;99.90
10873;DHT22;34586;53.616;10.032;2023-07-31T08:52:51;18.20;99.90
10873;DHT22;34586;53.616;10.032;2023-07-31T08:55:18;18.30;99.90
10873;DHT22;34586;53.616;10.032;2023-07-31T08:57:50;18.20;99.90
10873;DHT22;34586;53.616;10.032;2023-07-31T09:00:16;18.20;99.90
10873;DHT22;34586;53.616;10.032;2023-07-31T09:03:02;18.10;99.90
10873;DHT22;34586;53.616;10.032;2023-07-31T09:05:30;18.40;99.90
10873;DHT22;34586;53.616;10.032;2023-07-31T09:07:57;18.30;99.90
10873;DHT22;34586;53.616;10.032;2023-07-31T09:10:23;18.30;99.90
10873;DHT22;34586;53.616;10.032;2023-07-31T09:12:51;18.20;99.90
10873;DHT22;34586;53.616;10.032;2023-07-31T09:15:17;18.10;99.90
10873;DHT22;34586;53.616;10.032;2023-07-31T09:17:42;18.10;99.90
10873;DHT22;34586;53.616;10.032;2023-07-31T09:20:18;18.00;99.90
10873;DHT22;34586;53.616;10.032;2023-07-31T09:22:44;17.90;99.90
10873;DHT22;34586;53.616;10.032;2023-07-31T09:25:21;17.80;99.90
10873;DHT22;34586;53.616;10.032;2023-07-31T09:27:54;17.70;99.90
10873;DHT22;34586;53.616;10.032;2023-07-31T09:30:21;17.60;99.90
10873;DHT22;34586;53.616;10.032;2023-07-31T09:32:47;17.70;99.90
10873;DHT22;34586;53.616;10.032;2023-07-31T09:35:28;17.80;99.90
10873;DHT22;34586;53.616;10.032;2023-07-31T09:37:57;17.90;99.90
10873;DHT22;34586;53.616;10.032;2023-07-31T09:40:29;17.90;99.90
10873;DHT22;34586;53.616;10.032;2023-07-31T09:43:03;17.90;99.90
10873;DHT22;34586;53.616;10.032;2023-07-31T09:45:40;17.90;99.90
10873;DHT22;34586;53.616;10.032;2023-07-31T09:48:11;18.00;99.90
10873;DHT22;34586;53.616;10.032;2023-07-31T09:50:39;18.00;99.90
10873;DHT22;34586;53.616;10.032;2023-07-31T09:53:06;17.90;99.90
10873;DHT22;34586;53.616;10.032;2023-07-31T09:55:33;17.90;99.90
10873;DHT22;34586;53.616;10.032;2023-07-31T09:57:58;17.90;99.90
10873;DHT22;34586;53.616;10.032;2023-07-31T10:00:24;18.00;99.90
10873;DHT22;34586;53.616;10.032;2023-07-31T10:02:53;18.00;99.90
10873;DHT22;34586;53.616;10.032;2023-07-31T10:05:19;18.00;99.90
10873;DHT22;34586;53.616;10.032;2023-07-31T10:07:52;18.00;99.90
10873;DHT22;34586;53.616;10.032;2023-07-31T10:10:20;18.00;99.90
10873;DHT22;34586;53.616;10.032;2023-07-31T10:12:48;18.10;99.90
10873;DHT22;34586;53.616;10.032;2023-07-31T10:15:15;18.20;99.90
10873;DHT22;34586;53.616;10.032;2023-07-31T10:17:40;18.20;99.90
10873;DHT22;34586;53.616;10.032;2023-07-31T10:20:07;18.10;99.90
10873;DHT22;34586;53.616;10.032;2023-07-31T10:22:34;18.10;99.90
10873;DHT22;34586;53.616;10.032;2023-07-31T10:25:00;18.10;99.90
10873;DHT22;34586;53.616;10.032;2023-07-31T10:27:26;18.10;99.90
10873;DHT22;34586;53.616;10.032;2023-07-31T10:29:54;18.00;99.90
10873;DHT22;34586;53.616;10.032;2023-07-31T10:32:21;18.00;99.90
10873;DHT22;34586;53.616;10.032;2023-07-31T10:34:47;18.00;99.90
10873;DHT22;34586;53.616;10.032;2023-07-31T10:37:23;18.10;99.90
10873;DHT22;34586;53.616;10.032;2023-07-31T10:40:04;18.20;99.90
10873;DHT22;34586;53.616;10.032;2023-07-31T10:42:44;18.20;99.90
10873;DHT22;34586;53.616;10.032;2023-07-31T10:45:10;18.20;99.90
10873;DHT22;34586;53.616;10.032;2023-07-31T10:47:44;18.10;99.90
10873;DHT22;34586;53.616;10.032;2023-07-31T10:50:17;18.10;99.90
10873;DHT22;34586;53.616;10.032;2023-07-31T10:52:47;18.00;99.90
10873;DHT22;34586;53.616;10.032;2023-07-31T10:55:28;17.90;99.90
10873;DHT22;34586;53.616;10.032;2023-07-31T10:57:55;17.80;99.90
10873;DHT22;34586;53.616;10.032;2023-07-31T11:00:29;17.70;99.90
10873;DHT22;34586;53.616;10.032;2023-07-31T11:03:08;17.60;99.90
10873;DHT22;34586;53.616;10.032;2023-07-31T11:08:18;17.40;99.90
10873;DHT22;34586;53.616;10.032;2023-07-31T11:10:45;17.40;99.90
10873;DHT22;34586;53.616;10.032;2023-07-31T11:13:11;17.50;99.90
10873;DHT22;34586;53.616;10.032;2023-07-31T11:15:37;17.50;99.90
10873;DHT22;34586;53.616;10.032;2023-07-31T11:18:03;17.60;99.90
10873;DHT22;34586;53.616;10.032;2023-07-31T11:20:31;17.60;99.90
10873;DHT22;34586;53.616;10.032;2023-07-31T11:23:06;17.70;99.90
10873;DHT22;34586;53.616;10.032;2023-07-31T11:25:33;17.70;99.90
10873;DHT22;34586;53.616;10.032;2023-07-31T11:28:13;17.80;99.90
10873;DHT22;34586;53.616;10.032;2023-07-31T11:30:40;17.80;99.90
10873;DHT22;34586;53.616;10.032;2023-07-31T11:33:10;17.80;99.90
10873;DHT22;34586;53.616;10.032;2023-07-31T11:35:45;17.80;99.90
10873;DHT22;34586;53.616;10.032;2023-07-31T11:38:12;17.80;99.90
10873;DHT22;34586;53.616;10.032;2023-07-31T11:40:42;17.80;99.90
10873;DHT22;34586;53.616;10.032;2023-07-31T11:43:07;17.70;99.90
10873;DHT22;34586;53.616;10.032;2023-07-31T11:45:33;17.70;99.90
10873;DHT22;34586;53.616;10.032;2023-07-31T11:48:00;17.60;99.90
10873;DHT22;34586;53.616;10.032;2023-07-31T11:50:26;17.50;99.90
10873;DHT22;34586;53.616;10.032;2023-07-31T11:53:06;17.50;99.90
10873;DHT22;34586;53.616;10.032;2023-07-31T11:55:33;17.50;99.90
10873;DHT22;34586;53.616;10.032;2023-07-31T11:57:59;17.60;99.90
10873;DHT22;34586;53.616;10.032;2023-07-31T12:00:26;17.60;99.90
10873;DHT22;34586;53.616;10.032;2023-07-31T12:02:53;17.60;99.90
10873;DHT22;34586;53.616;10.032;2023-07-31T12:05:18;17.70;99.90
10873;DHT22;34586;53.616;10.032;2023-07-31T12:07:51;17.70;99.90
10873;DHT22;34586;53.616;10.032;2023-07-31T12:13:08;17.50;99.90
10873;DHT22;34586;53.616;10.032;2023-07-31T12:15:39;17.50;99.90
10873;DHT22;34586;53.616;10.032;2023-07-31T12:18:16;17.50;99.90
10873;DHT22;34586;53.616;10.032;2023-07-31T12:20:45;17.50;99.90
10873;DHT22;34586;53.616;10.032;2023-07-31T12:23:19;17.80;99.90
10873;DHT22;34586;53.616;10.032;2023-07-31T12:26:06;17.90;99.90
10873;DHT22;34586;53.616;10.032;2023-07-31T12:28:47;17.90;99.90
10873;DHT22;34586;53.616;10.032;2023-07-31T12:31:22;18.00;99.90
10873;DHT22;34586;53.616;10.032;2023-07-31T12:33:50;18.00;99.90
10873;DHT22;34586;53.616;10.032;2023-07-31T12:36:22;18.30;99.90
10873;DHT22;34586;53.616;10.032;2023-07-31T12:38:49;18.30;99.90
10873;DHT22;34586;53.616;10.032;2023-07-31T12:41:15;18.30;99.90
10873;DHT22;34586;53.616;10.032;2023-07-31T12:43:42;18.20;99.90
10873;DHT22;34586;53.616;10.032;2023-07-31T12:46:08;18.20;99.90
10873;DHT22;34586;53.616;10.032;2023-07-31T12:48:34;18.20;99.90
10873;DHT22;34586;53.616;10.032;2023-07-31T12:51:00;18.00;99.90
10873;DHT22;34586;53.616;10.032;2023-07-31T12:53:25;17.90;99.90
10873;DHT22;34586;53.616;10.032;2023-07-31T12:55:51;17.90;99.90
10873;DHT22;34586;53.616;10.032;2023-07-31T12:58:16;17.80;99.90
10873;DHT22;34586;53.616;10.032;2023-07-31T13:00:42;18.30;99.90
10873;DHT22;34586;53.616;10.032;2023-07-31T13:03:08;17.90;99.90
10873;DHT22;34586;53.616;10.032;2023-07-31T13:05:33;18.00;99.90
10873;DHT22;34586;53.616;10.032;2023-07-31T13:07:59;18.10;99.90
10873;DHT22;34586;53.616;10.032;2023-07-31T13:10:24;18.10;99.90
10873;DHT22;34586;53.616;10.032;2023-07-31T13:12:52;18.10;99.90
10873;DHT22;34586;53.616;10.032;2023-07-31T13:15:17;18.10;99.90
10873;DHT22;34586;53.616;10.032;2023-07-31T13:17:43;18.10;99.90
10873;DHT22;34586;53.616;10.032;2023-07-31T13:20:09;18.10;99.90
10873;DHT22;34586;53.616;10.032;2023-07-31T13:22:35;18.20;99.90
10873;DHT22;34586;53.616;10.032;2023-07-31T13:25:01;18.20;99.90
10873;DHT22;34586;53.616;10.032;2023-07-31T13:27:26;18.10;99.90
10873;DHT22;34586;53.616;10.032;2023-07-31T13:29:52;18.00;99.90
10873;DHT22;34586;53.616;10.032;2023-07-31T13:32:18;18.00;99.90
10873;DHT22;34586;53.616;10.032;2023-07-31T13:34:45;18.00;99.90
10873;DHT22;34586;53.616;10.032;2023-07-31T13:37:11;18.10;99.90
10873;DHT22;34586;53.616;10.032;2023-07-31T13:39:36;18.10;99.90
10873;DHT22;34586;53.616;10.032;2023-07-31T13:42:03;18.10;99.90
10873;DHT22;34586;53.616;10.032;2023-07-31T13:44:29;18.20;99.90
10873;DHT22;34586;53.616;10.032;2023-07-31T13:46:54;18.20;99.90
10873;DHT22;34586;53.616;10.032;2023-07-31T13:49:20;18.10;99.90
10873;DHT22;34586;53.616;10.032;2023-07-31T13:51:45;18.10;99.90
10873;DHT22;34586;53.616;10.032;2023-07-31T13:54:11;18.00;99.90
10873;DHT22;34586;53.616;10.032;2023-07-31T13:56:37;18.00;99.90
10873;DHT22;34586;53.616;10.032;2023-07-31T13:59:03;17.80;99.90
10873;DHT22;34586;53.616;10.032;2023-07-31T14:01:29;17.60;99.90
10873;DHT22;34586;53.616;10.032;2023-07-31T14:03:54;17.50;99.90
10873;DHT22;34586;53.616;10.032;2023-07-31T14:06:20;17.30;99.90
10873;DHT22;34586;53.616;10.032;2023-07-31T14:08:45;17.20;99.90
10873;DHT22;34586;53.616;10.032;2023-07-31T14:11:11;17.20;99.90
10873;DHT22;34586;53.616;10.032;2023-07-31T14:13:37;17.20;99.90
10873;DHT22;34586;53.616;10.032;2023-07-31T14:16:02;17.40;99.90
10873;DHT22;34586;53.616;10.032;2023-07-31T14:18:28;17.60;99.90
10873;DHT22;34586;53.616;10.032;2023-07-31T14:20:53;17.70;99.90
10873;DHT22;34586;53.616;10.032;2023-07-31T14:23:19;17.80;99.90
10873;DHT22;34586;53.616;10.032;2023-07-31T14:25:46;17.80;99.90
10873;DHT22;34586;53.616;10.032;2023-07-31T14:28:11;17.80;99.90
10873;DHT22;34586;53.616;10.032;2023-07-31T14:30:37;17.80;99.90
10873;DHT22;34586;53.616;10.032;2023-07-31T14:33:02;17.70;99.90
10873;DHT22;34586;53.616;10.032;2023-07-31T14:35:28;17.70;99.90
10873;DHT22;34586;53.616;10.032;2023-07-31T14:37:54;17.60;99.90
10873;DHT22;34586;53.616;10.032;2023-07-31T14:40:20;17.60;99.90
10873;DHT22;34586;53.616;10.032;2023-07-31T14:42:45;17.50;99.90
10873;DHT22;34586;53.616;10.032;2023-07-31T14:45:11;17.60;99.90
10873;DHT22;34586;53.616;10.032;2023-07-31T14:47:36;17.60;99.90
10873;DHT22;34586;53.616;10.032;2023-07-31T14:50:03;17.60;99.90
10873;DHT22;34586;53.616;10.032;2023-07-31T14:52:29;17.60;99.90
10873;DHT22;34586;53.616;10.032;2023-07-31T14:54:54;17.60;99.90
10873;DHT22;34586;53.616;10.032;2023-07-31T14:57:20;17.50;99.90
10873;DHT22;34586;53.616;10.032;2023-07-31T14:59:46;17.40;99.90
10873;DHT22;34586;53.616;10.032;2023-07-31T15:02:12;17.40;99.90
10873;DHT22;34586;53.616;10.032;2023-07-31T15:04:38;17.40;99.90
10873;DHT22;34586;53.616;10.032;2023-07-31T15:07:03;17.40;99.90
10873;DHT22;34586;53.616;10.032;2023-07-31T15:09:29;17.40;99.90
10873;DHT22;34586;53.616;10.032;2023-07-31T15:11:56;17.40;99.90
10873;DHT22;34586;53.616;10.032;2023-07-31T15:14:22;17.50;99.90
10873;DHT22;34586;53.616;10.032;2023-07-31T15:16:47;17.50;99.90
10873;DHT22;34586;53.616;10.032;2023-07-31T15:19:14;17.40;99.90
10873;DHT22;34586;53.616;10.032;2023-07-31T15:21:39;17.40;99.90
10873;DHT22;34586;53.616;10.032;2023-07-31T15:24:05;17.40;99.90